sensor_id;sensor_type;location;lat;lon;timestamp;P1;durP1;ratioP1;P2;durP2;ratioP2
77332;SDS011;66408;51.326;12.070;2023-02-28T00:01:25;2.92;;;1.40;;
77332;SDS011;66408;51.326;12.070;2023-02-28T00:03:52;4.88;;;1.90;;
77332;SDS011;66408;51.326;12.070;2023-02-28T00:06:20;3.88;;;1.75;;
77332;SDS011;66408;51.326;12.070;2023-02-28T00:08:47;4.47;;;1.88;;
77332;SDS011;66408;51.326;12.070;2023-02-28T00:11:14;5.28;;;1.60;;
77332;SDS011;66408;51.326;12.070;2023-02-28T00:13:42;3.95;;;1.58;;
77332;SDS011;66408;51.326;12.070;2023-02-28T00:16:16;3.65;;;1.33;;
77332;SDS011;66408;51.326;12.070;2023-02-28T00:18:45;3.53;;;1.73;;
77332;SDS011;66408;51.326;12.070;2023-02-28T00:21:13;4.45;;;2.13;;
77332;SDS011;66408;51.326;12.070;2023-02-28T00:23:41;4.30;;;1.63;;
77332;SDS011;66408;51.326;12.070;2023-02-28T00:26:07;3.13;;;1.90;;
77332;SDS011;66408;51.326;12.070;2023-02-28T00:28:34;3.58;;;1.58;;
77332;SDS011;66408;51.326;12.070;2023-02-28T00:31:00;4.90;;;1.77;;
77332;SDS011;66408;51.326;12.070;2023-02-28T00:33:27;3.17;;;1.40;;
77332;SDS011;66408;51.326;12.070;2023-02-28T00:36:05;3.35;;;1.60;;
77332;SDS011;66408;51.326;12.070;2023-02-28T00:38:33;3.85;;;1.65;;
77332;SDS011;66408;51.326;12.070;2023-02-28T00:41:00;3.78;;;1.85;;
77332;SDS011;66408;51.326;12.070;2023-02-28T00:43:31;2.75;;;1.70;;
77332;SDS011;66408;51.326;12.070;2023-02-28T00:45:58;3.42;;;1.70;;
77332;SDS011;66408;51.326;12.070;2023-02-28T00:48:25;4.20;;;1.60;;
77332;SDS011;66408;51.326;12.070;2023-02-28T00:50:52;3.75;;;1.50;;
77332;SDS011;66408;51.326;12.070;2023-02-28T00:53:19;3.80;;;1.50;;
77332;SDS011;66408;51.326;12.070;2023-02-28T00:55:45;4.75;;;1.70;;
77332;SDS011;66408;51.326;12.070;2023-02-28T00:58:12;3.53;;;1.83;;
77332;SDS011;66408;51.326;12.070;2023-02-28T01:00:38;5.97;;;1.88;;
77332;SDS011;66408;51.326;12.070;2023-02-28T01:03:05;3.13;;;1.55;;
77332;SDS011;66408;51.326;12.070;2023-02-28T01:05:31;5.82;;;1.95;;
77332;SDS011;66408;51.326;12.070;2023-02-28T01:07:58;3.75;;;1.80;;
77332;SDS011;66408;51.326;12.070;2023-02-28T01:10:24;5.60;;;1.92;;
77332;SDS011;66408;51.326;12.070;2023-02-28T01:12:52;4.18;;;1.70;;
77332;SDS011;66408;51.326;12.070;2023-02-28T01:15:18;3.63;;;1.80;;
77332;SDS011;66408;51.326;12.070;2023-02-28T01:17:45;4.35;;;1.65;;
77332;SDS011;66408;51.326;12.070;2023-02-28T01:20:11;4.20;;;1.88;;
77332;SDS011;66408;51.326;12.070;2023-02-28T01:22:38;4.18;;;1.42;;
77332;SDS011;66408;51.326;12.070;2023-02-28T01:25:04;3.30;;;1.77;;
77332;SDS011;66408;51.326;12.070;2023-02-28T01:27:31;3.72;;;1.92;;
77332;SDS011;66408;51.326;12.070;2023-02-28T01:29:57;3.50;;;1.60;;
77332;SDS011;66408;51.326;12.070;2023-02-28T01:32:24;3.60;;;1.90;;
77332;SDS011;66408;51.326;12.070;2023-02-28T01:34:50;5.00;;;2.15;;
77332;SDS011;66408;51.326;12.070;2023-02-28T01:37:17;4.45;;;2.30;;
77332;SDS011;66408;51.326;12.070;2023-02-28T01:39:43;3.47;;;1.60;;
77332;SDS011;66408;51.326;12.070;2023-02-28T01:42:10;3.90;;;2.10;;
77332;SDS011;66408;51.326;12.070;2023-02-28T01:47:31;4.32;;;1.45;;
77332;SDS011;66408;51.326;12.070;2023-02-28T01:50:04;3.10;;;1.40;;
77332;SDS011;66408;51.326;12.070;2023-02-28T01:52:34;4.68;;;1.90;;
77332;SDS011;66408;51.326;12.070;2023-02-28T01:55:01;2.58;;;1.38;;
77332;SDS011;66408;51.326;12.070;2023-02-28T01:57:32;3.00;;;1.48;;
77332;SDS011;66408;51.326;12.070;2023-02-28T02:00:08;5.13;;;1.85;;
77332;SDS011;66408;51.326;12.070;2023-02-28T02:02:44;3.20;;;1.42;;
77332;SDS011;66408;51.326;12.070;2023-02-28T02:05:15;5.28;;;1.58;;
77332;SDS011;66408;51.326;12.070;2023-02-28T02:07:44;3.60;;;1.50;;
77332;SDS011;66408;51.326;12.070;2023-02-28T02:10:14;2.83;;;1.40;;
77332;SDS011;66408;51.326;12.070;2023-02-28T02:15:49;5.00;;;1.45;;
77332;SDS011;66408;51.326;12.070;2023-02-28T02:26:55;4.10;;;1.48;;
77332;SDS011;66408;51.326;12.070;2023-02-28T02:29:40;3.20;;;1.63;;
77332;SDS011;66408;51.326;12.070;2023-02-28T02:32:19;3.42;;;1.65;;
77332;SDS011;66408;51.326;12.070;2023-02-28T02:37:40;2.78;;;1.30;;
77332;SDS011;66408;51.326;12.070;2023-02-28T02:43:22;2.85;;;1.30;;
77332;SDS011;66408;51.326;12.070;2023-02-28T02:46:12;3.33;;;1.50;;
77332;SDS011;66408;51.326;12.070;2023-02-28T02:48:44;4.53;;;1.50;;
77332;SDS011;66408;51.326;12.070;2023-02-28T02:51:13;3.50;;;1.48;;
77332;SDS011;66408;51.326;12.070;2023-02-28T02:53:49;3.70;;;1.27;;
77332;SDS011;66408;51.326;12.070;2023-02-28T02:56:22;3.50;;;1.50;;
77332;SDS011;66408;51.326;12.070;2023-02-28T02:58:51;3.35;;;1.65;;
77332;SDS011;66408;51.326;12.070;2023-02-28T03:01:22;3.60;;;1.80;;
77332;SDS011;66408;51.326;12.070;2023-02-28T03:03:59;3.72;;;1.25;;
77332;SDS011;66408;51.326;12.070;2023-02-28T03:06:30;3.83;;;1.65;;
77332;SDS011;66408;51.326;12.070;2023-02-28T03:08:57;3.65;;;1.48;;
77332;SDS011;66408;51.326;12.070;2023-02-28T03:11:25;3.13;;;1.52;;
77332;SDS011;66408;51.326;12.070;2023-02-28T03:14:10;5.15;;;1.75;;
77332;SDS011;66408;51.326;12.070;2023-02-28T03:33:03;2.97;;;1.73;;
77332;SDS011;66408;51.326;12.070;2023-02-28T03:35:42;3.50;;;1.55;;
77332;SDS011;66408;51.326;12.070;2023-02-28T03:38:19;4.07;;;1.50;;
77332;SDS011;66408;51.326;12.070;2023-02-28T03:40:55;3.08;;;1.50;;
77332;SDS011;66408;51.326;12.070;2023-02-28T03:43:31;3.75;;;1.48;;
77332;SDS011;66408;51.326;12.070;2023-02-28T03:46:03;4.40;;;1.45;;
77332;SDS011;66408;51.326;12.070;2023-02-28T03:48:45;3.08;;;1.60;;
77332;SDS011;66408;51.326;12.070;2023-02-28T03:51:17;3.08;;;1.30;;
77332;SDS011;66408;51.326;12.070;2023-02-28T03:53:50;2.40;;;1.23;;
77332;SDS011;66408;51.326;12.070;2023-02-28T03:56:22;2.63;;;1.30;;
77332;SDS011;66408;51.326;12.070;2023-02-28T03:59:07;4.63;;;1.55;;
77332;SDS011;66408;51.326;12.070;2023-02-28T04:01:47;3.72;;;1.40;;
77332;SDS011;66408;51.326;12.070;2023-02-28T04:04:15;3.85;;;1.50;;
77332;SDS011;66408;51.326;12.070;2023-02-28T04:06:43;4.18;;;1.38;;
77332;SDS011;66408;51.326;12.070;2023-02-28T04:09:12;2.67;;;1.38;;
77332;SDS011;66408;51.326;12.070;2023-02-28T04:14:07;3.47;;;1.40;;
77332;SDS011;66408;51.326;12.070;2023-02-28T04:16:36;4.05;;;1.55;;
77332;SDS011;66408;51.326;12.070;2023-02-28T04:19:04;3.80;;;1.70;;
77332;SDS011;66408;51.326;12.070;2023-02-28T04:21:34;3.80;;;1.27;;
77332;SDS011;66408;51.326;12.070;2023-02-28T04:24:02;4.70;;;1.80;;
77332;SDS011;66408;51.326;12.070;2023-02-28T04:26:33;4.65;;;1.55;;
77332;SDS011;66408;51.326;12.070;2023-02-28T04:29:02;6.28;;;1.80;;
77332;SDS011;66408;51.326;12.070;2023-02-28T04:31:30;6.18;;;1.90;;
77332;SDS011;66408;51.326;12.070;2023-02-28T04:33:57;5.57;;;2.10;;
77332;SDS011;66408;51.326;12.070;2023-02-28T04:36:23;4.30;;;1.27;;
77332;SDS011;66408;51.326;12.070;2023-02-28T04:38:50;3.65;;;2.08;;
77332;SDS011;66408;51.326;12.070;2023-02-28T04:41:18;6.43;;;2.00;;
77332;SDS011;66408;51.326;12.070;2023-02-28T04:43:45;4.85;;;1.90;;
77332;SDS011;66408;51.326;12.070;2023-02-28T04:46:11;4.28;;;1.73;;
77332;SDS011;66408;51.326;12.070;2023-02-28T04:48:40;3.50;;;1.65;;
77332;SDS011;66408;51.326;12.070;2023-02-28T04:51:08;2.92;;;1.55;;
77332;SDS011;66408;51.326;12.070;2023-02-28T04:56:04;3.95;;;1.58;;
77332;SDS011;66408;51.326;12.070;2023-02-28T04:58:31;4.40;;;1.80;;
77332;SDS011;66408;51.326;12.070;2023-02-28T05:01:06;6.38;;;2.70;;
77332;SDS011;66408;51.326;12.070;2023-02-28T05:03:42;8.20;;;3.00;;
77332;SDS011;66408;51.326;12.070;2023-02-28T05:06:10;6.95;;;3.10;;
77332;SDS011;66408;51.326;12.070;2023-02-28T05:08:38;7.28;;;2.70;;
77332;SDS011;66408;51.326;12.070;2023-02-28T05:11:24;4.35;;;2.17;;
77332;SDS011;66408;51.326;12.070;2023-02-28T05:13:55;4.55;;;2.25;;
77332;SDS011;66408;51.326;12.070;2023-02-28T05:16:22;9.48;;;2.92;;
77332;SDS011;66408;51.326;12.070;2023-02-28T05:18:48;3.28;;;1.88;;
77332;SDS011;66408;51.326;12.070;2023-02-28T05:21:36;4.90;;;2.60;;
77332;SDS011;66408;51.326;12.070;2023-02-28T05:24:05;6.30;;;2.55;;
77332;SDS011;66408;51.326;12.070;2023-02-28T05:26:34;5.85;;;2.80;;
77332;SDS011;66408;51.326;12.070;2023-02-28T05:29:02;5.38;;;2.42;;
77332;SDS011;66408;51.326;12.070;2023-02-28T05:31:28;4.35;;;2.10;;
77332;SDS011;66408;51.326;12.070;2023-02-28T05:33:55;4.72;;;2.17;;
77332;SDS011;66408;51.326;12.070;2023-02-28T05:36:22;4.50;;;2.20;;
77332;SDS011;66408;51.326;12.070;2023-02-28T05:38:50;4.75;;;2.20;;
77332;SDS011;66408;51.326;12.070;2023-02-28T05:41:17;5.53;;;2.35;;
77332;SDS011;66408;51.326;12.070;2023-02-28T05:43:46;6.07;;;2.65;;
77332;SDS011;66408;51.326;12.070;2023-02-28T05:46:13;5.40;;;2.28;;
77332;SDS011;66408;51.326;12.070;2023-02-28T05:48:40;5.90;;;2.28;;
77332;SDS011;66408;51.326;12.070;2023-02-28T05:51:08;3.80;;;1.85;;
77332;SDS011;66408;51.326;12.070;2023-02-28T05:53:35;5.78;;;2.08;;
77332;SDS011;66408;51.326;12.070;2023-02-28T05:56:02;6.20;;;2.38;;
77332;SDS011;66408;51.326;12.070;2023-02-28T05:58:29;5.00;;;2.00;;
77332;SDS011;66408;51.326;12.070;2023-02-28T06:00:58;5.93;;;2.25;;
77332;SDS011;66408;51.326;12.070;2023-02-28T06:03:25;4.18;;;2.10;;
77332;SDS011;66408;51.326;12.070;2023-02-28T06:05:52;6.72;;;2.20;;
77332;SDS011;66408;51.326;12.070;2023-02-28T06:08:19;5.80;;;2.40;;
77332;SDS011;66408;51.326;12.070;2023-02-28T06:10:46;6.95;;;2.78;;
77332;SDS011;66408;51.326;12.070;2023-02-28T06:13:13;5.35;;;2.20;;
77332;SDS011;66408;51.326;12.070;2023-02-28T06:15:40;5.15;;;2.15;;
77332;SDS011;66408;51.326;12.070;2023-02-28T06:18:06;3.20;;;1.90;;
77332;SDS011;66408;51.326;12.070;2023-02-28T06:20:33;5.18;;;2.53;;
77332;SDS011;66408;51.326;12.070;2023-02-28T06:23:00;7.40;;;3.13;;
77332;SDS011;66408;51.326;12.070;2023-02-28T06:25:27;8.25;;;3.17;;
77332;SDS011;66408;51.326;12.070;2023-02-28T06:27:54;10.85;;;4.03;;
77332;SDS011;66408;51.326;12.070;2023-02-28T06:30:26;7.57;;;3.22;;
77332;SDS011;66408;51.326;12.070;2023-02-28T06:32:56;6.18;;;2.70;;
77332;SDS011;66408;51.326;12.070;2023-02-28T06:35:22;5.28;;;2.33;;
77332;SDS011;66408;51.326;12.070;2023-02-28T06:37:49;6.88;;;2.10;;
77332;SDS011;66408;51.326;12.070;2023-02-28T06:40:15;5.22;;;2.53;;
77332;SDS011;66408;51.326;12.070;2023-02-28T06:42:42;6.13;;;2.67;;
77332;SDS011;66408;51.326;12.070;2023-02-28T06:45:09;4.63;;;2.45;;
77332;SDS011;66408;51.326;12.070;2023-02-28T06:47:37;5.88;;;2.40;;
77332;SDS011;66408;51.326;12.070;2023-02-28T06:50:05;4.75;;;2.15;;
77332;SDS011;66408;51.326;12.070;2023-02-28T06:52:32;7.38;;;2.67;;
77332;SDS011;66408;51.326;12.070;2023-02-28T06:55:02;8.48;;;2.80;;
77332;SDS011;66408;51.326;12.070;2023-02-28T06:57:33;5.85;;;2.40;;
77332;SDS011;66408;51.326;12.070;2023-02-28T07:00:02;6.50;;;2.40;;
77332;SDS011;66408;51.326;12.070;2023-02-28T07:02:34;6.20;;;2.28;;
77332;SDS011;66408;51.326;12.070;2023-02-28T07:05:02;6.53;;;2.10;;
77332;SDS011;66408;51.326;12.070;2023-02-28T07:07:29;7.55;;;2.55;;
77332;SDS011;66408;51.326;12.070;2023-02-28T07:09:56;7.15;;;2.40;;
77332;SDS011;66408;51.326;12.070;2023-02-28T07:12:22;6.45;;;2.58;;
77332;SDS011;66408;51.326;12.070;2023-02-28T07:14:49;5.63;;;2.30;;
77332;SDS011;66408;51.326;12.070;2023-02-28T07:17:16;5.03;;;2.17;;
77332;SDS011;66408;51.326;12.070;2023-02-28T07:19:42;6.65;;;2.10;;
77332;SDS011;66408;51.326;12.070;2023-02-28T07:22:09;4.53;;;2.17;;
77332;SDS011;66408;51.326;12.070;2023-02-28T07:24:35;4.13;;;2.03;;
77332;SDS011;66408;51.326;12.070;2023-02-28T07:27:02;4.75;;;1.95;;
77332;SDS011;66408;51.326;12.070;2023-02-28T07:29:29;7.35;;;2.67;;
77332;SDS011;66408;51.326;12.070;2023-02-28T07:31:55;6.43;;;2.47;;
77332;SDS011;66408;51.326;12.070;2023-02-28T07:34:22;8.48;;;2.90;;
77332;SDS011;66408;51.326;12.070;2023-02-28T07:36:49;6.88;;;2.78;;
77332;SDS011;66408;51.326;12.070;2023-02-28T07:39:20;5.47;;;2.63;;
77332;SDS011;66408;51.326;12.070;2023-02-28T07:41:47;5.53;;;2.72;;
77332;SDS011;66408;51.326;12.070;2023-02-28T07:44:14;12.35;;;4.88;;
77332;SDS011;66408;51.326;12.070;2023-02-28T07:46:40;5.68;;;3.38;;
77332;SDS011;66408;51.326;12.070;2023-02-28T07:49:07;9.90;;;4.47;;
77332;SDS011;66408;51.326;12.070;2023-02-28T07:51:33;7.05;;;3.20;;
77332;SDS011;66408;51.326;12.070;2023-02-28T07:54:00;7.85;;;3.10;;
77332;SDS011;66408;51.326;12.070;2023-02-28T07:56:27;7.63;;;2.83;;
77332;SDS011;66408;51.326;12.070;2023-02-28T07:58:54;7.72;;;3.17;;
77332;SDS011;66408;51.326;12.070;2023-02-28T08:01:21;6.40;;;2.55;;
77332;SDS011;66408;51.326;12.070;2023-02-28T08:03:48;6.60;;;2.92;;
77332;SDS011;66408;51.326;12.070;2023-02-28T08:06:16;5.82;;;3.05;;
77332;SDS011;66408;51.326;12.070;2023-02-28T08:08:45;6.00;;;2.85;;
77332;SDS011;66408;51.326;12.070;2023-02-28T08:11:12;4.97;;;2.40;;
77332;SDS011;66408;51.326;12.070;2023-02-28T08:13:39;8.35;;;3.08;;
77332;SDS011;66408;51.326;12.070;2023-02-28T08:16:05;6.55;;;2.92;;
77332;SDS011;66408;51.326;12.070;2023-02-28T08:18:32;5.57;;;2.88;;
77332;SDS011;66408;51.326;12.070;2023-02-28T08:20:59;7.63;;;2.80;;
77332;SDS011;66408;51.326;12.070;2023-02-28T08:23:26;5.80;;;2.80;;
77332;SDS011;66408;51.326;12.070;2023-02-28T08:25:53;8.10;;;3.22;;
77332;SDS011;66408;51.326;12.070;2023-02-28T08:28:22;5.82;;;3.08;;
77332;SDS011;66408;51.326;12.070;2023-02-28T08:30:52;7.00;;;3.63;;
77332;SDS011;66408;51.326;12.070;2023-02-28T08:33:19;6.88;;;3.10;;
77332;SDS011;66408;51.326;12.070;2023-02-28T08:35:46;4.63;;;2.45;;
77332;SDS011;66408;51.326;12.070;2023-02-28T08:38:12;6.10;;;3.00;;
77332;SDS011;66408;51.326;12.070;2023-02-28T08:40:39;9.18;;;2.85;;
77332;SDS011;66408;51.326;12.070;2023-02-28T08:43:06;5.60;;;2.58;;
77332;SDS011;66408;51.326;12.070;2023-02-28T08:45:33;5.15;;;2.65;;
77332;SDS011;66408;51.326;12.070;2023-02-28T08:47:59;6.90;;;3.30;;
77332;SDS011;66408;51.326;12.070;2023-02-28T08:50:26;7.72;;;2.70;;
77332;SDS011;66408;51.326;12.070;2023-02-28T08:52:52;3.95;;;2.30;;
77332;SDS011;66408;51.326;12.070;2023-02-28T08:55:19;5.20;;;2.30;;
77332;SDS011;66408;51.326;12.070;2023-02-28T08:57:45;6.15;;;2.95;;
77332;SDS011;66408;51.326;12.070;2023-02-28T09:00:12;4.10;;;2.03;;
77332;SDS011;66408;51.326;12.070;2023-02-28T09:02:39;4.65;;;2.22;;
77332;SDS011;66408;51.326;12.070;2023-02-28T09:07:35;8.48;;;2.47;;
77332;SDS011;66408;51.326;12.070;2023-02-28T09:10:01;3.78;;;2.20;;
77332;SDS011;66408;51.326;12.070;2023-02-28T09:12:28;4.07;;;2.30;;
77332;SDS011;66408;51.326;12.070;2023-02-28T09:15:00;4.28;;;2.13;;
77332;SDS011;66408;51.326;12.070;2023-02-28T09:17:27;3.83;;;2.10;;
77332;SDS011;66408;51.326;12.070;2023-02-28T09:19:56;3.10;;;2.13;;
77332;SDS011;66408;51.326;12.070;2023-02-28T09:22:23;3.67;;;1.70;;
77332;SDS011;66408;51.326;12.070;2023-02-28T09:24:49;3.80;;;1.90;;
77332;SDS011;66408;51.326;12.070;2023-02-28T09:27:16;4.28;;;1.83;;
77332;SDS011;66408;51.326;12.070;2023-02-28T09:29:42;3.42;;;1.70;;
77332;SDS011;66408;51.326;12.070;2023-02-28T09:32:09;2.95;;;1.60;;
77332;SDS011;66408;51.326;12.070;2023-02-28T09:34:36;3.10;;;1.77;;
77332;SDS011;66408;51.326;12.070;2023-02-28T09:37:03;3.55;;;1.70;;
77332;SDS011;66408;51.326;12.070;2023-02-28T09:39:30;4.57;;;1.30;;
77332;SDS011;66408;51.326;12.070;2023-02-28T09:41:57;4.97;;;1.77;;
77332;SDS011;66408;51.326;12.070;2023-02-28T09:44:26;4.72;;;2.17;;
77332;SDS011;66408;51.326;12.070;2023-02-28T09:46:59;4.75;;;2.10;;
77332;SDS011;66408;51.326;12.070;2023-02-28T09:49:33;4.28;;;1.98;;
77332;SDS011;66408;51.326;12.070;2023-02-28T09:52:05;3.70;;;1.95;;
77332;SDS011;66408;51.326;12.070;2023-02-28T09:54:37;4.22;;;1.85;;
77332;SDS011;66408;51.326;12.070;2023-02-28T09:59:50;5.75;;;2.08;;
77332;SDS011;66408;51.326;12.070;2023-02-28T10:05:13;4.28;;;2.17;;
77332;SDS011;66408;51.326;12.070;2023-02-28T10:10:29;4.85;;;2.33;;
77332;SDS011;66408;51.326;12.070;2023-02-28T10:13:06;4.07;;;2.30;;
77332;SDS011;66408;51.326;12.070;2023-02-28T10:15:41;4.50;;;2.10;;
77332;SDS011;66408;51.326;12.070;2023-02-28T10:18:11;6.18;;;2.50;;
77332;SDS011;66408;51.326;12.070;2023-02-28T10:20:42;5.63;;;2.10;;
77332;SDS011;66408;51.326;12.070;2023-02-28T10:26:00;5.18;;;2.95;;
77332;SDS011;66408;51.326;12.070;2023-02-28T10:28:31;4.03;;;2.20;;
77332;SDS011;66408;51.326;12.070;2023-02-28T10:30:58;5.72;;;2.90;;
77332;SDS011;66408;51.326;12.070;2023-02-28T10:35:55;5.35;;;2.60;;
77332;SDS011;66408;51.326;12.070;2023-02-28T10:38:23;6.00;;;2.60;;
77332;SDS011;66408;51.326;12.070;2023-02-28T10:40:51;4.63;;;2.47;;
77332;SDS011;66408;51.326;12.070;2023-02-28T10:43:29;4.97;;;2.55;;
77332;SDS011;66408;51.326;12.070;2023-02-28T10:46:30;4.65;;;2.67;;
77332;SDS011;66408;51.326;12.070;2023-02-28T10:51:40;5.05;;;2.45;;
77332;SDS011;66408;51.326;12.070;2023-02-28T10:54:22;5.38;;;2.63;;
77332;SDS011;66408;51.326;12.070;2023-02-28T10:57:05;6.07;;;2.85;;
77332;SDS011;66408;51.326;12.070;2023-02-28T10:59:41;5.60;;;2.83;;
77332;SDS011;66408;51.326;12.070;2023-02-28T11:04:55;4.85;;;2.72;;
77332;SDS011;66408;51.326;12.070;2023-02-28T11:07:22;5.47;;;2.67;;
77332;SDS011;66408;51.326;12.070;2023-02-28T11:09:56;4.68;;;3.53;;
77332;SDS011;66408;51.326;12.070;2023-02-28T11:20:47;5.68;;;2.92;;
77332;SDS011;66408;51.326;12.070;2023-02-28T11:23:17;6.35;;;3.08;;
77332;SDS011;66408;51.326;12.070;2023-02-28T11:25:47;5.75;;;2.80;;
77332;SDS011;66408;51.326;12.070;2023-02-28T11:28:33;9.50;;;2.85;;
77332;SDS011;66408;51.326;12.070;2023-02-28T11:36:21;6.05;;;2.80;;
77332;SDS011;66408;51.326;12.070;2023-02-28T11:38:59;4.50;;;2.65;;
77332;SDS011;66408;51.326;12.070;2023-02-28T11:49:45;7.72;;;2.90;;
77332;SDS011;66408;51.326;12.070;2023-02-28T12:03:59;4.38;;;2.63;;
77332;SDS011;66408;51.326;12.070;2023-02-28T12:06:57;6.60;;;3.00;;
77332;SDS011;66408;51.326;12.070;2023-02-28T12:25:24;5.32;;;3.38;;
77332;SDS011;66408;51.326;12.070;2023-02-28T12:28:11;6.80;;;3.47;;
77332;SDS011;66408;51.326;12.070;2023-02-28T12:30:49;5.30;;;3.20;;
77332;SDS011;66408;51.326;12.070;2023-02-28T12:33:24;8.45;;;3.50;;
77332;SDS011;66408;51.326;12.070;2023-02-28T12:35:59;6.18;;;3.45;;
77332;SDS011;66408;51.326;12.070;2023-02-28T12:38:36;6.22;;;3.22;;
77332;SDS011;66408;51.326;12.070;2023-02-28T12:41:19;5.65;;;3.30;;
77332;SDS011;66408;51.326;12.070;2023-02-28T12:47:03;8.18;;;3.20;;
77332;SDS011;66408;51.326;12.070;2023-02-28T12:49:39;6.85;;;3.67;;
77332;SDS011;66408;51.326;12.070;2023-02-28T12:52:13;5.63;;;2.92;;
77332;SDS011;66408;51.326;12.070;2023-02-28T12:54:44;6.32;;;3.70;;
77332;SDS011;66408;51.326;12.070;2023-02-28T12:57:35;5.53;;;3.33;;
77332;SDS011;66408;51.326;12.070;2023-02-28T13:00:08;6.93;;;3.70;;
77332;SDS011;66408;51.326;12.070;2023-02-28T13:10:45;7.45;;;4.32;;
77332;SDS011;66408;51.326;12.070;2023-02-28T13:13:17;5.78;;;3.50;;
77332;SDS011;66408;51.326;12.070;2023-02-28T13:15:57;6.93;;;3.35;;
77332;SDS011;66408;51.326;12.070;2023-02-28T13:20:59;6.68;;;3.75;;
77332;SDS011;66408;51.326;12.070;2023-02-28T13:26:06;6.75;;;3.42;;
77332;SDS011;66408;51.326;12.070;2023-02-28T13:31:14;8.55;;;4.10;;
77332;SDS011;66408;51.326;12.070;2023-02-28T13:38:44;6.60;;;4.03;;
77332;SDS011;66408;51.326;12.070;2023-02-28T13:41:40;8.90;;;3.88;;
77332;SDS011;66408;51.326;12.070;2023-02-28T13:44:20;9.18;;;4.43;;
77332;SDS011;66408;51.326;12.070;2023-02-28T13:47:18;8.15;;;3.88;;
77332;SDS011;66408;51.326;12.070;2023-02-28T13:49:46;10.52;;;4.25;;
77332;SDS011;66408;51.326;12.070;2023-02-28T13:52:17;8.65;;;4.25;;
77332;SDS011;66408;51.326;12.070;2023-02-28T14:08:59;6.82;;;3.95;;
77332;SDS011;66408;51.326;12.070;2023-02-28T14:11:28;6.80;;;3.65;;
77332;SDS011;66408;51.326;12.070;2023-02-28T14:14:03;7.90;;;3.67;;
77332;SDS011;66408;51.326;12.070;2023-02-28T14:16:49;7.63;;;4.05;;
77332;SDS011;66408;51.326;12.070;2023-02-28T14:19:19;7.75;;;3.90;;
77332;SDS011;66408;51.326;12.070;2023-02-28T14:27:17;9.38;;;4.55;;
77332;SDS011;66408;51.326;12.070;2023-02-28T14:30:02;8.20;;;3.60;;
77332;SDS011;66408;51.326;12.070;2023-02-28T14:38:53;8.85;;;4.20;;
77332;SDS011;66408;51.326;12.070;2023-02-28T14:41:37;8.10;;;3.70;;
77332;SDS011;66408;51.326;12.070;2023-02-28T14:46:53;6.25;;;3.80;;
77332;SDS011;66408;51.326;12.070;2023-02-28T14:49:41;8.98;;;4.18;;
77332;SDS011;66408;51.326;12.070;2023-02-28T14:54:38;6.32;;;3.47;;
77332;SDS011;66408;51.326;12.070;2023-02-28T14:57:06;6.22;;;3.63;;
77332;SDS011;66408;51.326;12.070;2023-02-28T14:59:33;6.78;;;3.45;;
77332;SDS011;66408;51.326;12.070;2023-02-28T15:05:02;8.88;;;4.30;;
77332;SDS011;66408;51.326;12.070;2023-02-28T15:07:46;7.68;;;4.00;;
77332;SDS011;66408;51.326;12.070;2023-02-28T15:12:55;8.77;;;3.90;;
77332;SDS011;66408;51.326;12.070;2023-02-28T15:15:35;8.85;;;4.55;;
77332;SDS011;66408;51.326;12.070;2023-02-28T15:18:31;7.00;;;3.60;;
77332;SDS011;66408;51.326;12.070;2023-02-28T15:21:11;9.52;;;5.03;;
77332;SDS011;66408;51.326;12.070;2023-02-28T15:23:50;7.78;;;4.63;;
77332;SDS011;66408;51.326;12.070;2023-02-28T15:26:22;8.85;;;4.38;;
77332;SDS011;66408;51.326;12.070;2023-02-28T15:28:56;8.25;;;4.20;;
77332;SDS011;66408;51.326;12.070;2023-02-28T15:31:27;7.80;;;4.20;;
77332;SDS011;66408;51.326;12.070;2023-02-28T15:34:12;6.75;;;3.55;;
77332;SDS011;66408;51.326;12.070;2023-02-28T15:36:44;8.32;;;4.32;;
77332;SDS011;66408;51.326;12.070;2023-02-28T15:42:11;8.73;;;3.95;;
77332;SDS011;66408;51.326;12.070;2023-02-28T15:44:43;8.15;;;3.70;;
77332;SDS011;66408;51.326;12.070;2023-02-28T15:47:24;8.43;;;4.13;;
77332;SDS011;66408;51.326;12.070;2023-02-28T15:49:57;7.38;;;3.75;;
77332;SDS011;66408;51.326;12.070;2023-02-28T15:52:43;13.05;;;4.60;;
77332;SDS011;66408;51.326;12.070;2023-02-28T15:55:17;9.90;;;3.90;;
77332;SDS011;66408;51.326;12.070;2023-02-28T15:57:50;10.43;;;4.75;;
77332;SDS011;66408;51.326;12.070;2023-02-28T16:00:20;9.13;;;4.57;;
77332;SDS011;66408;51.326;12.070;2023-02-28T16:02:49;8.02;;;4.55;;
77332;SDS011;66408;51.326;12.070;2023-02-28T16:05:24;7.88;;;4.35;;
77332;SDS011;66408;51.326;12.070;2023-02-28T16:07:55;6.25;;;3.58;;
77332;SDS011;66408;51.326;12.070;2023-02-28T16:10:23;7.82;;;4.45;;
77332;SDS011;66408;51.326;12.070;2023-02-28T16:12:55;13.10;;;5.88;;
77332;SDS011;66408;51.326;12.070;2023-02-28T16:15:24;8.80;;;4.97;;
77332;SDS011;66408;51.326;12.070;2023-02-28T16:17:53;9.75;;;5.07;;
77332;SDS011;66408;51.326;12.070;2023-02-28T16:20:22;13.00;;;6.32;;
77332;SDS011;66408;51.326;12.070;2023-02-28T16:22:50;11.00;;;5.53;;
77332;SDS011;66408;51.326;12.070;2023-02-28T16:25:19;9.20;;;4.88;;
77332;SDS011;66408;51.326;12.070;2023-02-28T16:27:53;8.80;;;4.38;;
77332;SDS011;66408;51.326;12.070;2023-02-28T16:30:22;9.00;;;4.28;;
77332;SDS011;66408;51.326;12.070;2023-02-28T16:32:51;8.80;;;4.47;;
77332;SDS011;66408;51.326;12.070;2023-02-28T16:35:20;9.18;;;4.38;;
77332;SDS011;66408;51.326;12.070;2023-02-28T16:37:47;14.32;;;5.75;;
77332;SDS011;66408;51.326;12.070;2023-02-28T16:40:15;9.57;;;4.50;;
77332;SDS011;66408;51.326;12.070;2023-02-28T16:42:48;10.35;;;5.13;;
77332;SDS011;66408;51.326;12.070;2023-02-28T16:45:17;11.25;;;5.00;;
77332;SDS011;66408;51.326;12.070;2023-02-28T16:47:47;10.45;;;5.13;;
77332;SDS011;66408;51.326;12.070;2023-02-28T16:50:18;11.93;;;5.38;;
77332;SDS011;66408;51.326;12.070;2023-02-28T16:52:47;9.52;;;4.68;;
77332;SDS011;66408;51.326;12.070;2023-02-28T16:55:15;12.35;;;5.65;;
77332;SDS011;66408;51.326;12.070;2023-02-28T16:57:42;8.00;;;4.60;;
77332;SDS011;66408;51.326;12.070;2023-02-28T17:00:11;10.98;;;5.25;;
77332;SDS011;66408;51.326;12.070;2023-02-28T17:02:39;12.00;;;5.03;;
77332;SDS011;66408;51.326;12.070;2023-02-28T17:05:08;8.38;;;4.30;;
77332;SDS011;66408;51.326;12.070;2023-02-28T17:07:38;7.47;;;4.03;;
77332;SDS011;66408;51.326;12.070;2023-02-28T17:12:45;9.73;;;4.60;;
77332;SDS011;66408;51.326;12.070;2023-02-28T17:15:12;9.75;;;4.13;;
77332;SDS011;66408;51.326;12.070;2023-02-28T17:17:41;7.40;;;3.85;;
77332;SDS011;66408;51.326;12.070;2023-02-28T17:20:12;11.02;;;4.50;;
77332;SDS011;66408;51.326;12.070;2023-02-28T17:22:40;8.02;;;4.00;;
77332;SDS011;66408;51.326;12.070;2023-02-28T17:25:07;9.07;;;4.18;;
77332;SDS011;66408;51.326;12.070;2023-02-28T17:27:34;7.38;;;3.97;;
77332;SDS011;66408;51.326;12.070;2023-02-28T17:30:02;9.70;;;4.13;;
77332;SDS011;66408;51.326;12.070;2023-02-28T17:32:39;8.98;;;4.65;;
77332;SDS011;66408;51.326;12.070;2023-02-28T17:35:07;8.35;;;4.57;;
77332;SDS011;66408;51.326;12.070;2023-02-28T17:37:34;11.18;;;4.18;;
77332;SDS011;66408;51.326;12.070;2023-02-28T17:40:02;8.50;;;3.97;;
77332;SDS011;66408;51.326;12.070;2023-02-28T17:42:29;7.65;;;3.92;;
77332;SDS011;66408;51.326;12.070;2023-02-28T17:44:56;8.35;;;4.20;;
77332;SDS011;66408;51.326;12.070;2023-02-28T17:47:23;8.50;;;4.07;;
77332;SDS011;66408;51.326;12.070;2023-02-28T17:49:50;7.97;;;3.83;;
77332;SDS011;66408;51.326;12.070;2023-02-28T17:52:17;6.97;;;3.85;;